sensor_id;sensor_type;location;lat;lon;timestamp;P1;durP1;ratioP1;P2;durP2;ratioP2
20739;SDS011;10530;49.968;19.844;2023-10-31T00:00:28;2.42;;;0.68;;
20739;SDS011;10530;49.968;19.844;2023-10-31T00:05:31;4.50;;;0.88;;
20739;SDS011;10530;49.968;19.844;2023-10-31T00:10:34;3.65;;;0.88;;
20739;SDS011;10530;49.968;19.844;2023-10-31T00:15:37;4.77;;;1.20;;
20739;SDS011;10530;49.968;19.844;2023-10-31T00:20:40;5.20;;;1.30;;
20739;SDS011;10530;49.968;19.844;2023-10-31T00:25:42;4.50;;;1.10;;
20739;SDS011;10530;49.968;19.844;2023-10-31T00:30:45;4.15;;;1.42;;
20739;SDS011;10530;49.968;19.844;2023-10-31T00:35:48;3.70;;;1.00;;
20739;SDS011;10530;49.968;19.844;2023-10-31T00:40:51;3.60;;;0.87;;
20739;SDS011;10530;49.968;19.844;2023-10-31T00:45:54;4.68;;;1.15;;
20739;SDS011;10530;49.968;19.844;2023-10-31T00:50:58;2.78;;;0.82;;
20739;SDS011;10530;49.968;19.844;2023-10-31T00:56:01;2.95;;;0.70;;
20739;SDS011;10530;49.968;19.844;2023-10-31T01:01:04;4.10;;;0.70;;
20739;SDS011;10530;49.968;19.844;2023-10-31T01:06:07;3.97;;;1.10;;
20739;SDS011;10530;49.968;19.844;2023-10-31T01:11:10;3.70;;;0.95;;
20739;SDS011;10530;49.968;19.844;2023-10-31T01:16:13;3.08;;;1.23;;
20739;SDS011;10530;49.968;19.844;2023-10-31T01:21:16;3.85;;;1.00;;
20739;SDS011;10530;49.968;19.844;2023-10-31T01:26:21;4.72;;;1.05;;
20739;SDS011;10530;49.968;19.844;2023-10-31T01:31:24;3.77;;;1.00;;
20739;SDS011;10530;49.968;19.844;2023-10-31T01:36:26;5.43;;;1.13;;
20739;SDS011;10530;49.968;19.844;2023-10-31T01:41:29;3.28;;;1.00;;
20739;SDS011;10530;49.968;19.844;2023-10-31T01:46:32;2.88;;;0.90;;
20739;SDS011;10530;49.968;19.844;2023-10-31T01:51:36;5.10;;;1.10;;
20739;SDS011;10530;49.968;19.844;2023-10-31T01:56:39;5.50;;;1.00;;
20739;SDS011;10530;49.968;19.844;2023-10-31T02:01:42;3.90;;;0.90;;
20739;SDS011;10530;49.968;19.844;2023-10-31T02:06:45;5.95;;;1.17;;
20739;SDS011;10530;49.968;19.844;2023-10-31T02:11:47;3.03;;;0.90;;
20739;SDS011;10530;49.968;19.844;2023-10-31T02:16:51;4.90;;;1.10;;
20739;SDS011;10530;49.968;19.844;2023-10-31T02:21:53;4.40;;;1.00;;
20739;SDS011;10530;49.968;19.844;2023-10-31T02:26:58;4.03;;;1.10;;
20739;SDS011;10530;49.968;19.844;2023-10-31T02:32:01;4.47;;;0.90;;
20739;SDS011;10530;49.968;19.844;2023-10-31T02:37:04;4.38;;;1.20;;
20739;SDS011;10530;49.968;19.844;2023-10-31T02:42:07;6.43;;;1.20;;
20739;SDS011;10530;49.968;19.844;2023-10-31T02:47:10;3.77;;;1.10;;
20739;SDS011;10530;49.968;19.844;2023-10-31T02:52:13;3.50;;;1.10;;
20739;SDS011;10530;49.968;19.844;2023-10-31T02:57:15;4.25;;;1.25;;
20739;SDS011;10530;49.968;19.844;2023-10-31T03:02:18;5.30;;;1.38;;
20739;SDS011;10530;49.968;19.844;2023-10-31T03:07:22;4.72;;;1.30;;
20739;SDS011;10530;49.968;19.844;2023-10-31T03:12:25;5.17;;;1.40;;
20739;SDS011;10530;49.968;19.844;2023-10-31T03:17:28;4.07;;;1.30;;
20739;SDS011;10530;49.968;19.844;2023-10-31T03:22:31;3.80;;;1.17;;
20739;SDS011;10530;49.968;19.844;2023-10-31T03:27:34;3.17;;;1.00;;
20739;SDS011;10530;49.968;19.844;2023-10-31T03:32:37;4.72;;;1.00;;
20739;SDS011;10530;49.968;19.844;2023-10-31T03:37:40;3.23;;;1.10;;
20739;SDS011;10530;49.968;19.844;2023-10-31T03:42:45;4.28;;;1.20;;
20739;SDS011;10530;49.968;19.844;2023-10-31T03:47:48;3.95;;;1.10;;
20739;SDS011;10530;49.968;19.844;2023-10-31T03:52:51;3.25;;;1.30;;
20739;SDS011;10530;49.968;19.844;2023-10-31T03:57:54;4.80;;;1.15;;
20739;SDS011;10530;49.968;19.844;2023-10-31T04:02:56;4.33;;;1.30;;
20739;SDS011;10530;49.968;19.844;2023-10-31T04:08:00;4.38;;;1.20;;
20739;SDS011;10530;49.968;19.844;2023-10-31T04:13:04;3.47;;;1.20;;
20739;SDS011;10530;49.968;19.844;2023-10-31T04:18:07;3.40;;;1.20;;
20739;SDS011;10530;49.968;19.844;2023-10-31T04:23:10;5.13;;;1.23;;
20739;SDS011;10530;49.968;19.844;2023-10-31T04:28:14;4.33;;;1.20;;
20739;SDS011;10530;49.968;19.844;2023-10-31T04:33:17;3.65;;;1.30;;
20739;SDS011;10530;49.968;19.844;2023-10-31T04:38:19;4.13;;;1.55;;
20739;SDS011;10530;49.968;19.844;2023-10-31T04:43:24;4.00;;;1.27;;
20739;SDS011;10530;49.968;19.844;2023-10-31T04:48:26;3.65;;;1.30;;
20739;SDS011;10530;49.968;19.844;2023-10-31T04:53:29;3.73;;;1.20;;
20739;SDS011;10530;49.968;19.844;2023-10-31T04:58:34;4.53;;;1.20;;
20739;SDS011;10530;49.968;19.844;2023-10-31T05:03:37;4.65;;;1.23;;
20739;SDS011;10530;49.968;19.844;2023-10-31T05:08:40;3.45;;;1.42;;
20739;SDS011;10530;49.968;19.844;2023-10-31T05:13:44;3.28;;;1.20;;
20739;SDS011;10530;49.968;19.844;2023-10-31T05:18:50;4.90;;;1.43;;
20739;SDS011;10530;49.968;19.844;2023-10-31T05:23:53;3.55;;;1.17;;
20739;SDS011;10530;49.968;19.844;2023-10-31T05:28:56;4.05;;;1.02;;
20739;SDS011;10530;49.968;19.844;2023-10-31T05:33:59;5.07;;;1.20;;
20739;SDS011;10530;49.968;19.844;2023-10-31T05:39:03;3.30;;;1.20;;
20739;SDS011;10530;49.968;19.844;2023-10-31T05:44:06;7.33;;;1.20;;
20739;SDS011;10530;49.968;19.844;2023-10-31T05:49:10;2.80;;;0.68;;
20739;SDS011;10530;49.968;19.844;2023-10-31T05:54:13;4.95;;;1.45;;
20739;SDS011;10530;49.968;19.844;2023-10-31T05:59:16;9.13;;;1.42;;
20739;SDS011;10530;49.968;19.844;2023-10-31T06:04:19;4.85;;;1.30;;
20739;SDS011;10530;49.968;19.844;2023-10-31T06:09:22;4.33;;;1.10;;
20739;SDS011;10530;49.968;19.844;2023-10-31T06:14:25;4.85;;;1.60;;
20739;SDS011;10530;49.968;19.844;2023-10-31T06:19:28;5.07;;;1.25;;
20739;SDS011;10530;49.968;19.844;2023-10-31T06:24:31;3.28;;;0.98;;
20739;SDS011;10530;49.968;19.844;2023-10-31T06:29:34;6.15;;;1.15;;
20739;SDS011;10530;49.968;19.844;2023-10-31T06:34:57;5.17;;;1.30;;
20739;SDS011;10530;49.968;19.844;2023-10-31T06:40:00;3.70;;;1.02;;
20739;SDS011;10530;49.968;19.844;2023-10-31T06:45:03;5.50;;;1.20;;
20739;SDS011;10530;49.968;19.844;2023-10-31T06:50:08;3.95;;;1.15;;
20739;SDS011;10530;49.968;19.844;2023-10-31T06:55:12;4.97;;;1.00;;
20739;SDS011;10530;49.968;19.844;2023-10-31T07:00:15;5.40;;;1.10;;
20739;SDS011;10530;49.968;19.844;2023-10-31T07:05:18;3.00;;;1.00;;
20739;SDS011;10530;49.968;19.844;2023-10-31T07:10:22;3.92;;;1.08;;
20739;SDS011;10530;49.968;19.844;2023-10-31T07:15:25;3.60;;;1.20;;
20739;SDS011;10530;49.968;19.844;2023-10-31T07:20:28;4.63;;;1.00;;
20739;SDS011;10530;49.968;19.844;2023-10-31T07:25:31;3.63;;;1.30;;
20739;SDS011;10530;49.968;19.844;2023-10-31T07:30:33;3.50;;;0.98;;
20739;SDS011;10530;49.968;19.844;2023-10-31T07:35:36;5.18;;;1.27;;
20739;SDS011;10530;49.968;19.844;2023-10-31T07:40:39;3.20;;;1.00;;
20739;SDS011;10530;49.968;19.844;2023-10-31T07:45:42;4.68;;;1.33;;
20739;SDS011;10530;49.968;19.844;2023-10-31T07:50:45;2.93;;;1.00;;
20739;SDS011;10530;49.968;19.844;2023-10-31T07:55:48;4.18;;;1.20;;
20739;SDS011;10530;49.968;19.844;2023-10-31T08:00:51;6.18;;;1.38;;
20739;SDS011;10530;49.968;19.844;2023-10-31T08:05:54;4.45;;;1.23;;
20739;SDS011;10530;49.968;19.844;2023-10-31T08:10:57;5.22;;;1.40;;
20739;SDS011;10530;49.968;19.844;2023-10-31T08:16:01;5.30;;;1.47;;
20739;SDS011;10530;49.968;19.844;2023-10-31T08:21:04;3.47;;;1.17;;
20739;SDS011;10530;49.968;19.844;2023-10-31T08:26:07;6.85;;;1.55;;
20739;SDS011;10530;49.968;19.844;2023-10-31T08:31:10;4.35;;;1.30;;
20739;SDS011;10530;49.968;19.844;2023-10-31T08:36:12;3.90;;;1.50;;
20739;SDS011;10530;49.968;19.844;2023-10-31T08:41:15;3.97;;;1.30;;
20739;SDS011;10530;49.968;19.844;2023-10-31T08:46:22;5.57;;;1.70;;
20739;SDS011;10530;49.968;19.844;2023-10-31T08:51:24;4.95;;;1.63;;
20739;SDS011;10530;49.968;19.844;2023-10-31T08:56:28;5.20;;;1.73;;
20739;SDS011;10530;49.968;19.844;2023-10-31T09:01:31;4.75;;;1.80;;
20739;SDS011;10530;49.968;19.844;2023-10-31T09:06:35;5.43;;;1.60;;
20739;SDS011;10530;49.968;19.844;2023-10-31T09:11:38;4.28;;;1.58;;
20739;SDS011;10530;49.968;19.844;2023-10-31T09:16:41;5.40;;;1.73;;
20739;SDS011;10530;49.968;19.844;2023-10-31T09:21:44;3.45;;;1.33;;
20739;SDS011;10530;49.968;19.844;2023-10-31T09:26:47;4.70;;;1.60;;
20739;SDS011;10530;49.968;19.844;2023-10-31T09:31:50;4.67;;;1.50;;
20739;SDS011;10530;49.968;19.844;2023-10-31T09:36:53;6.07;;;1.55;;
20739;SDS011;10530;49.968;19.844;2023-10-31T09:41:56;5.35;;;1.65;;
20739;SDS011;10530;49.968;19.844;2023-10-31T09:47:00;5.50;;;1.63;;
20739;SDS011;10530;49.968;19.844;2023-10-31T09:52:04;5.78;;;1.90;;
20739;SDS011;10530;49.968;19.844;2023-10-31T09:57:09;4.93;;;1.83;;
20739;SDS011;10530;49.968;19.844;2023-10-31T10:02:13;5.50;;;1.95;;
20739;SDS011;10530;49.968;19.844;2023-10-31T10:07:16;7.53;;;2.60;;
20739;SDS011;10530;49.968;19.844;2023-10-31T10:12:20;4.40;;;1.77;;
20739;SDS011;10530;49.968;19.844;2023-10-31T10:17:23;9.57;;;2.47;;
20739;SDS011;10530;49.968;19.844;2023-10-31T10:22:28;7.93;;;2.00;;
20739;SDS011;10530;49.968;19.844;2023-10-31T10:27:31;8.15;;;2.38;;
20739;SDS011;10530;49.968;19.844;2023-10-31T10:32:34;7.15;;;2.30;;
20739;SDS011;10530;49.968;19.844;2023-10-31T10:37:37;4.90;;;1.90;;
20739;SDS011;10530;49.968;19.844;2023-10-31T10:47:50;6.80;;;2.67;;
20739;SDS011;10530;49.968;19.844;2023-10-31T10:53:07;6.55;;;2.58;;
20739;SDS011;10530;49.968;19.844;2023-10-31T10:58:31;7.05;;;2.60;;
20739;SDS011;10530;49.968;19.844;2023-10-31T11:03:39;5.18;;;1.83;;
20739;SDS011;10530;49.968;19.844;2023-10-31T11:08:42;5.35;;;2.15;;
20739;SDS011;10530;49.968;19.844;2023-10-31T11:13:46;6.37;;;2.10;;
20739;SDS011;10530;49.968;19.844;2023-10-31T11:18:49;4.95;;;2.13;;
20739;SDS011;10530;49.968;19.844;2023-10-31T11:23:59;4.05;;;1.50;;
20739;SDS011;10530;49.968;19.844;2023-10-31T11:29:03;6.20;;;2.05;;
20739;SDS011;10530;49.968;19.844;2023-10-31T11:34:06;4.15;;;1.90;;
20739;SDS011;10530;49.968;19.844;2023-10-31T11:39:13;7.20;;;2.17;;
20739;SDS011;10530;49.968;19.844;2023-10-31T11:44:17;5.00;;;1.88;;
20739;SDS011;10530;49.968;19.844;2023-10-31T11:54:50;5.78;;;2.10;;
20739;SDS011;10530;49.968;19.844;2023-10-31T11:59:53;4.50;;;1.65;;
20739;SDS011;10530;49.968;19.844;2023-10-31T12:05:12;5.67;;;1.90;;
20739;SDS011;10530;49.968;19.844;2023-10-31T12:10:23;5.50;;;1.70;;
20739;SDS011;10530;49.968;19.844;2023-10-31T12:15:29;5.32;;;1.60;;
20739;SDS011;10530;49.968;19.844;2023-10-31T12:20:32;4.55;;;1.73;;
20739;SDS011;10530;49.968;19.844;2023-10-31T12:25:45;4.85;;;1.80;;
20739;SDS011;10530;49.968;19.844;2023-10-31T12:30:52;4.77;;;2.10;;
20739;SDS011;10530;49.968;19.844;2023-10-31T12:36:02;6.80;;;2.10;;
20739;SDS011;10530;49.968;19.844;2023-10-31T12:41:05;5.20;;;2.30;;
20739;SDS011;10530;49.968;19.844;2023-10-31T12:46:24;5.55;;;2.22;;
20739;SDS011;10530;49.968;19.844;2023-10-31T12:51:37;5.30;;;2.20;;
20739;SDS011;10530;49.968;19.844;2023-10-31T12:56:40;4.73;;;2.17;;
20739;SDS011;10530;49.968;19.844;2023-10-31T13:01:44;6.28;;;2.05;;
20739;SDS011;10530;49.968;19.844;2023-10-31T13:07:00;5.72;;;1.60;;
20739;SDS011;10530;49.968;19.844;2023-10-31T13:12:08;3.63;;;1.60;;
20739;SDS011;10530;49.968;19.844;2023-10-31T13:17:13;4.35;;;1.90;;
20739;SDS011;10530;49.968;19.844;2023-10-31T13:22:16;5.03;;;2.07;;
20739;SDS011;10530;49.968;19.844;2023-10-31T13:27:19;4.60;;;1.98;;
20739;SDS011;10530;49.968;19.844;2023-10-31T13:32:23;5.22;;;2.50;;
20739;SDS011;10530;49.968;19.844;2023-10-31T13:37:26;6.07;;;2.60;;
20739;SDS011;10530;49.968;19.844;2023-10-31T13:42:29;5.30;;;2.60;;
20739;SDS011;10530;49.968;19.844;2023-10-31T13:47:32;5.00;;;2.50;;
20739;SDS011;10530;49.968;19.844;2023-10-31T13:52:35;4.60;;;2.42;;
20739;SDS011;10530;49.968;19.844;2023-10-31T13:57:40;9.18;;;2.92;;
20739;SDS011;10530;49.968;19.844;2023-10-31T14:02:43;7.35;;;3.22;;
20739;SDS011;10530;49.968;19.844;2023-10-31T14:07:46;8.45;;;3.55;;
20739;SDS011;10530;49.968;19.844;2023-10-31T14:12:49;7.07;;;3.30;;
20739;SDS011;10530;49.968;19.844;2023-10-31T14:17:54;8.15;;;3.92;;
20739;SDS011;10530;49.968;19.844;2023-10-31T14:22:57;5.60;;;3.25;;
20739;SDS011;10530;49.968;19.844;2023-10-31T14:28:00;5.57;;;3.20;;
20739;SDS011;10530;49.968;19.844;2023-10-31T14:33:03;6.90;;;3.30;;
20739;SDS011;10530;49.968;19.844;2023-10-31T14:38:06;8.20;;;3.20;;
20739;SDS011;10530;49.968;19.844;2023-10-31T14:43:09;6.63;;;2.70;;
20739;SDS011;10530;49.968;19.844;2023-10-31T14:48:12;6.15;;;3.17;;
20739;SDS011;10530;49.968;19.844;2023-10-31T14:53:15;6.28;;;2.83;;
20739;SDS011;10530;49.968;19.844;2023-10-31T14:58:19;6.68;;;3.00;;
20739;SDS011;10530;49.968;19.844;2023-10-31T15:03:22;9.50;;;3.20;;
20739;SDS011;10530;49.968;19.844;2023-10-31T15:08:25;7.95;;;3.50;;
20739;SDS011;10530;49.968;19.844;2023-10-31T15:13:29;9.48;;;4.55;;
20739;SDS011;10530;49.968;19.844;2023-10-31T15:18:31;12.25;;;5.07;;
20739;SDS011;10530;49.968;19.844;2023-10-31T15:23:35;12.38;;;5.63;;
20739;SDS011;10530;49.968;19.844;2023-10-31T15:28:40;12.03;;;5.83;;
20739;SDS011;10530;49.968;19.844;2023-10-31T15:33:44;15.35;;;6.45;;
20739;SDS011;10530;49.968;19.844;2023-10-31T15:38:47;16.42;;;6.35;;
20739;SDS011;10530;49.968;19.844;2023-10-31T15:43:51;16.95;;;6.63;;
20739;SDS011;10530;49.968;19.844;2023-10-31T15:48:56;16.50;;;7.35;;
20739;SDS011;10530;49.968;19.844;2023-10-31T15:54:01;15.53;;;7.57;;
20739;SDS011;10530;49.968;19.844;2023-10-31T15:59:08;16.15;;;7.05;;
20739;SDS011;10530;49.968;19.844;2023-10-31T16:04:11;17.85;;;7.97;;
20739;SDS011;10530;49.968;19.844;2023-10-31T16:09:14;12.55;;;6.55;;
20739;SDS011;10530;49.968;19.844;2023-10-31T16:14:18;11.10;;;5.05;;
20739;SDS011;10530;49.968;19.844;2023-10-31T16:19:24;10.13;;;4.63;;
20739;SDS011;10530;49.968;19.844;2023-10-31T16:24:27;10.00;;;4.40;;
20739;SDS011;10530;49.968;19.844;2023-10-31T16:29:30;9.57;;;4.38;;
20739;SDS011;10530;49.968;19.844;2023-10-31T16:34:33;10.02;;;4.18;;
20739;SDS011;10530;49.968;19.844;2023-10-31T16:39:37;9.43;;;3.65;;
20739;SDS011;10530;49.968;19.844;2023-10-31T16:44:39;7.53;;;3.60;;
20739;SDS011;10530;49.968;19.844;2023-10-31T16:49:42;9.45;;;3.70;;
20739;SDS011;10530;49.968;19.844;2023-10-31T16:54:45;9.77;;;4.57;;
20739;SDS011;10530;49.968;19.844;2023-10-31T16:59:48;8.95;;;4.25;;
20739;SDS011;10530;49.968;19.844;2023-10-31T17:04:51;11.60;;;4.38;;
20739;SDS011;10530;49.968;19.844;2023-10-31T17:09:58;10.10;;;4.27;;
20739;SDS011;10530;49.968;19.844;2023-10-31T17:15:02;11.50;;;4.72;;
20739;SDS011;10530;49.968;19.844;2023-10-31T17:20:05;12.23;;;5.22;;
20739;SDS011;10530;49.968;19.844;2023-10-31T17:25:09;12.27;;;5.03;;
20739;SDS011;10530;49.968;19.844;2023-10-31T17:30:12;12.35;;;5.03;;
20739;SDS011;10530;49.968;19.844;2023-10-31T17:35:18;10.43;;;4.90;;
20739;SDS011;10530;49.968;19.844;2023-10-31T17:40:22;12.30;;;5.20;;
20739;SDS011;10530;49.968;19.844;2023-10-31T17:45:25;12.73;;;5.30;;
20739;SDS011;10530;49.968;19.844;2023-10-31T17:50:28;11.88;;;5.00;;
20739;SDS011;10530;49.968;19.844;2023-10-31T17:55:37;10.32;;;4.35;;
20739;SDS011;10530;49.968;19.844;2023-10-31T18:00:40;8.13;;;3.40;;
20739;SDS011;10530;49.968;19.844;2023-10-31T18:05:43;7.15;;;2.70;;
20739;SDS011;10530;49.968;19.844;2023-10-31T18:10:46;4.68;;;2.17;;
20739;SDS011;10530;49.968;19.844;2023-10-31T18:15:50;5.78;;;2.20;;
20739;SDS011;10530;49.968;19.844;2023-10-31T18:20:52;5.40;;;2.13;;
20739;SDS011;10530;49.968;19.844;2023-10-31T18:25:57;6.17;;;1.70;;
20739;SDS011;10530;49.968;19.844;2023-10-31T18:31:00;4.88;;;1.70;;
20739;SDS011;10530;49.968;19.844;2023-10-31T18:36:03;7.05;;;2.38;;
20739;SDS011;10530;49.968;19.844;2023-10-31T18:41:06;6.85;;;2.95;;
20739;SDS011;10530;49.968;19.844;2023-10-31T18:46:10;9.30;;;3.25;;
20739;SDS011;10530;49.968;19.844;2023-10-31T18:51:13;8.03;;;2.83;;
20739;SDS011;10530;49.968;19.844;2023-10-31T18:56:17;7.00;;;2.65;;
20739;SDS011;10530;49.968;19.844;2023-10-31T19:01:20;8.73;;;3.33;;
20739;SDS011;10530;49.968;19.844;2023-10-31T19:06:23;9.25;;;3.17;;
20739;SDS011;10530;49.968;19.844;2023-10-31T19:11:26;4.95;;;2.42;;
20739;SDS011;10530;49.968;19.844;2023-10-31T19:16:29;6.27;;;2.67;;
20739;SDS011;10530;49.968;19.844;2023-10-31T19:21:32;6.93;;;2.75;;
20739;SDS011;10530;49.968;19.844;2023-10-31T19:26:37;6.50;;;2.90;;
20739;SDS011;10530;49.968;19.844;2023-10-31T19:31:41;5.05;;;1.58;;
20739;SDS011;10530;49.968;19.844;2023-10-31T19:36:44;5.72;;;1.92;;
20739;SDS011;10530;49.968;19.844;2023-10-31T19:41:47;6.37;;;2.50;;
20739;SDS011;10530;49.968;19.844;2023-10-31T19:46:50;9.40;;;2.88;;
20739;SDS011;10530;49.968;19.844;2023-10-31T19:51:53;8.60;;;3.28;;
20739;SDS011;10530;49.968;19.844;2023-10-31T19:56:56;9.38;;;3.47;;
20739;SDS011;10530;49.968;19.844;2023-10-31T20:01:59;6.70;;;3.28;;
20739;SDS011;10530;49.968;19.844;2023-10-31T20:07:02;10.67;;;4.27;;
20739;SDS011;10530;49.968;19.844;2023-10-31T20:12:05;6.72;;;2.92;;
20739;SDS011;10530;49.968;19.844;2023-10-31T20:17:10;9.60;;;3.25;;
20739;SDS011;10530;49.968;19.844;2023-10-31T20:22:12;7.43;;;3.30;;
20739;SDS011;10530;49.968;19.844;2023-10-31T20:27:15;7.05;;;2.55;;
20739;SDS011;10530;49.968;19.844;2023-10-31T20:32:18;9.30;;;2.80;;
20739;SDS011;10530;49.968;19.844;2023-10-31T20:37:21;9.00;;;3.42;;
20739;SDS011;10530;49.968;19.844;2023-10-31T20:42:24;6.10;;;2.95;;
20739;SDS011;10530;49.968;19.844;2023-10-31T20:47:27;6.85;;;3.08;;
20739;SDS011;10530;49.968;19.844;2023-10-31T20:52:33;5.50;;;2.10;;
20739;SDS011;10530;49.968;19.844;2023-10-31T20:57:36;6.87;;;2.70;;
20739;SDS011;10530;49.968;19.844;2023-10-31T21:02:39;5.90;;;3.03;;
20739;SDS011;10530;49.968;19.844;2023-10-31T21:07:42;5.78;;;2.40;;
20739;SDS011;10530;49.968;19.844;2023-10-31T21:12:45;5.97;;;2.65;;
20739;SDS011;10530;49.968;19.844;2023-10-31T21:17:48;6.30;;;2.60;;
20739;SDS011;10530;49.968;19.844;2023-10-31T21:22:51;7.20;;;2.63;;
20739;SDS011;10530;49.968;19.844;2023-10-31T21:27:55;6.35;;;2.72;;
20739;SDS011;10530;49.968;19.844;2023-10-31T21:32:58;5.22;;;2.40;;
20739;SDS011;10530;49.968;19.844;2023-10-31T21:38:01;6.95;;;2.63;;
20739;SDS011;10530;49.968;19.844;2023-10-31T21:43:04;7.47;;;2.65;;
20739;SDS011;10530;49.968;19.844;2023-10-31T21:48:06;7.00;;;2.70;;
20739;SDS011;10530;49.968;19.844;2023-10-31T21:53:12;7.97;;;2.80;;
20739;SDS011;10530;49.968;19.844;2023-10-31T21:58:15;5.68;;;1.98;;
20739;SDS011;10530;49.968;19.844;2023-10-31T22:03:17;5.20;;;1.83;;
20739;SDS011;10530;49.968;19.844;2023-10-31T22:08:22;5.15;;;1.70;;
20739;SDS011;10530;49.968;19.844;2023-10-31T22:13:25;4.30;;;1.80;;
20739;SDS011;10530;49.968;19.844;2023-10-31T22:18:28;5.50;;;1.80;;
20739;SDS011;10530;49.968;19.844;2023-10-31T22:23:31;6.35;;;2.03;;
20739;SDS011;10530;49.968;19.844;2023-10-31T22:28:34;6.07;;;1.85;;
20739;SDS011;10530;49.968;19.844;2023-10-31T22:33:37;4.25;;;1.60;;
20739;SDS011;10530;49.968;19.844;2023-10-31T22:38:40;6.10;;;1.70;;
20739;SDS011;10530;49.968;19.844;2023-10-31T22:43:43;5.53;;;1.80;;
20739;SDS011;10530;49.968;19.844;2023-10-31T22:48:46;5.13;;;1.92;;
20739;SDS011;10530;49.968;19.844;2023-10-31T22:53:49;4.88;;;1.90;;
20739;SDS011;10530;49.968;19.844;2023-10-31T22:58:52;4.95;;;1.90;;
20739;SDS011;10530;49.968;19.844;2023-10-31T23:03:54;6.50;;;2.40;;
20739;SDS011;10530;49.968;19.844;2023-10-31T23:08:57;6.95;;;2.70;;
20739;SDS011;10530;49.968;19.844;2023-10-31T23:14:09;4.25;;;1.98;;
20739;SDS011;10530;49.968;19.844;2023-10-31T23:19:12;6.13;;;1.95;;
20739;SDS011;10530;49.968;19.844;2023-10-31T23:24:15;2.97;;;0.95;;
20739;SDS011;10530;49.968;19.844;2023-10-31T23:29:18;5.13;;;1.90;;
20739;SDS011;10530;49.968;19.844;2023-10-31T23:34:21;6.45;;;2.40;;
20739;SDS011;10530;49.968;19.844;2023-10-31T23:39:24;3.70;;;1.65;;
20739;SDS011;10530;49.968;19.844;2023-10-31T23:44:26;5.45;;;2.22;;
20739;SDS011;10530;49.968;19.844;2023-10-31T23:49:29;5.68;;;2.10;;
20739;SDS011;10530;49.968;19.844;2023-10-31T23:54:33;4.57;;;2.13;;
20739;SDS011;10530;49.968;19.844;2023-10-31T23:59:35;4.55;;;1.98;;
